createdAt,value
2019-06-19T00:00:15.399Z,0
2019-06-19T00:01:17.546Z,0
2019-06-19T00:02:19.126Z,0
2019-06-19T00:03:19.231Z,0
2019-06-19T00:04:18.331Z,0
2019-06-19T00:05:22.634Z,0
2019-06-19T00:06:19.959Z,0
2019-06-19T00:07:19.965Z,0
2019-06-19T00:08:19.322Z,0
2019-06-19T00:09:20.347Z,0
2019-06-19T00:10:23.663Z,0
2019-06-19T00:11:23.437Z,0
2019-06-19T00:12:23.702Z,0
2019-06-19T00:13:23.933Z,0
2019-06-19T00:14:25.048Z,0
2019-06-19T00:15:23.866Z,0
2019-06-19T00:16:23.337Z,0
2019-06-19T00:17:23.969Z,0
2019-06-19T00:18:33.500Z,0
2019-06-19T00:19:25.092Z,0
2019-06-19T00:20:27.815Z,0
2019-06-19T00:21:28.953Z,0
2019-06-19T00:22:28.789Z,0
2019-06-19T00:23:28.820Z,0
2019-06-19T00:24:29.679Z,0
2019-06-19T00:25:33.838Z,0
2019-06-19T00:26:32.596Z,0
2019-06-19T00:27:29.474Z,0
2019-06-19T00:28:44.125Z,0
2019-06-19T00:29:51.447Z,0
2019-06-19T00:30:32.860Z,0
2019-06-19T00:31:33.273Z,0
2019-06-19T00:32:33.401Z,0
2019-06-19T00:33:35.837Z,0
2019-06-19T00:34:36.307Z,0
2019-06-19T00:35:36.308Z,0
2019-06-19T00:36:37.111Z,0
2019-06-19T00:37:37.153Z,0
2019-06-19T00:38:37.344Z,0
2019-06-19T00:39:37.942Z,0
2019-06-19T00:40:38.640Z,0
2019-06-19T00:41:41.411Z,0
2019-06-19T00:42:42.425Z,0
2019-06-19T00:43:42.586Z,0
2019-06-19T00:44:42.007Z,0
2019-06-19T00:45:42.410Z,0
2019-06-19T00:46:42.537Z,0
2019-06-19T00:47:42.938Z,0
2019-06-19T00:48:43.054Z,0
2019-06-19T00:49:46.461Z,0
2019-06-19T00:50:46.744Z,0
2019-06-19T00:51:47.345Z,0
2019-06-19T00:52:47.933Z,0
2019-06-19T00:53:47.613Z,0
2019-06-19T00:54:50.398Z,0
2019-06-19T00:55:47.136Z,0
2019-06-19T00:56:47.555Z,0
2019-06-19T00:57:48.264Z,0
2019-06-19T00:58:51.012Z,0
2019-06-19T01:00:09.004Z,0
2019-06-19T01:00:52.616Z,0
2019-06-19T01:01:52.198Z,0
2019-06-19T01:02:51.698Z,0
2019-06-19T01:03:52.688Z,0
2019-06-19T01:04:52.016Z,0
2019-06-19T01:05:53.063Z,0
2019-06-19T01:06:56.415Z,0
2019-06-19T01:07:56.655Z,0
2019-06-19T01:09:00.575Z,0
2019-06-19T01:09:57.309Z,0
2019-06-19T01:10:58.237Z,0
2019-06-19T01:11:56.855Z,0
2019-06-19T01:13:00.286Z,0
2019-06-19T01:14:00.869Z,0
2019-06-19T01:14:58.191Z,0
2019-06-19T01:16:01.921Z,0
2019-06-19T01:17:01.873Z,0
2019-06-19T01:18:01.746Z,0
2019-06-19T01:19:02.727Z,0
2019-06-19T01:20:01.690Z,0
2019-06-19T01:21:02.431Z,0
2019-06-19T01:22:02.559Z,0
2019-06-19T01:23:03.262Z,0
2019-06-19T01:24:03.676Z,0
2019-06-19T01:25:06.947Z,0
2019-06-19T01:26:07.361Z,0
2019-06-19T01:27:07.462Z,0
2019-06-19T01:28:07.089Z,0
2019-06-19T01:29:07.606Z,0
2019-06-19T01:30:26.774Z,0
2019-06-19T01:31:07.292Z,0
2019-06-19T01:32:08.319Z,0
2019-06-19T01:33:12.269Z,0
2019-06-19T01:34:12.147Z,0
2019-06-19T01:35:12.179Z,0
2019-06-19T01:36:12.097Z,0
2019-06-19T01:37:11.917Z,0
2019-06-19T01:38:12.568Z,0
2019-06-19T01:39:13.002Z,0
2019-06-19T01:40:13.548Z,0
2019-06-19T01:41:16.405Z,0
2019-06-19T01:42:17.359Z,0
2019-06-19T01:43:15.993Z,0
2019-06-19T01:44:17.808Z,0
2019-06-19T01:45:18.134Z,0
2019-06-19T01:46:17.251Z,0
2019-06-19T01:47:18.327Z,0
2019-06-19T01:48:20.717Z,0
2019-06-19T01:49:18.517Z,0
2019-06-19T01:50:22.271Z,0
2019-06-19T01:51:22.483Z,0
2019-06-19T01:52:22.456Z,0
2019-06-19T01:53:21.850Z,0
2019-06-19T01:54:22.649Z,0
2019-06-19T01:55:22.597Z,0
2019-06-19T01:56:22.008Z,0
2019-06-19T01:57:22.155Z,0
2019-06-19T01:58:22.275Z,0
2019-06-19T01:59:22.432Z,0
2019-06-19T02:00:46.536Z,0
2019-06-19T02:01:23.675Z,0
2019-06-19T02:02:25.894Z,0
2019-06-19T02:03:27.848Z,0
2019-06-19T02:04:27.644Z,0
2019-06-19T02:05:28.448Z,0
2019-06-19T02:06:27.856Z,0
2019-06-19T02:07:30.782Z,0
2019-06-19T02:08:31.863Z,0
2019-06-19T02:09:32.632Z,0
2019-06-19T02:10:31.982Z,0
2019-06-19T02:11:31.832Z,0
2019-06-19T02:12:32.817Z,0
2019-06-19T02:13:32.606Z,0
2019-06-19T02:14:32.573Z,0
2019-06-19T02:15:33.016Z,0
2019-06-19T02:16:36.577Z,0
2019-06-19T02:17:36.516Z,0
2019-06-19T02:18:37.317Z,0
2019-06-19T02:19:55.910Z,0
2019-06-19T02:20:46.844Z,0
2019-06-19T02:21:42.968Z,0
2019-06-19T02:22:46.302Z,0
2019-06-19T02:23:46.057Z,0
2019-06-19T02:24:48.238Z,0
2019-06-19T02:25:47.592Z,0
2019-06-19T02:26:47.250Z,0
2019-06-19T02:27:46.602Z,0
2019-06-19T02:28:46.968Z,0
2019-06-19T02:29:47.508Z,0
2019-06-19T02:31:27.752Z,0
2019-06-19T02:32:01.804Z,0
2019-06-19T02:32:57.207Z,0
2019-06-19T02:33:52.780Z,0
2019-06-19T02:34:53.257Z,0
2019-06-19T02:35:52.310Z,0
2019-06-19T02:36:56.963Z,0
2019-06-19T02:37:57.613Z,0
2019-06-19T02:38:53.176Z,0
2019-06-19T02:39:52.882Z,0
2019-06-19T02:40:53.470Z,0
2019-06-19T02:41:56.102Z,0
2019-06-19T02:42:54.224Z,0
2019-06-19T02:43:54.932Z,0
2019-06-19T02:44:59.291Z,0
2019-06-19T02:45:55.467Z,0
2019-06-19T02:46:55.893Z,0
2019-06-19T02:47:56.570Z,0
2019-06-19T02:48:57.266Z,0
2019-06-19T02:49:57.714Z,0
2019-06-19T02:50:57.674Z,0
2019-06-19T02:51:57.792Z,0
2019-06-19T02:53:01.112Z,0
2019-06-19T02:53:58.730Z,0
2019-06-19T02:54:59.146Z,0
2019-06-19T02:55:59.271Z,0
2019-06-19T02:56:59.971Z,0
2019-06-19T02:58:01.259Z,0
2019-06-19T02:59:01.282Z,0
2019-06-19T03:00:01.403Z,0
2019-06-19T03:01:16.085Z,0
2019-06-19T03:02:02.857Z,0
2019-06-19T03:03:03.570Z,0
2019-06-19T03:04:04.269Z,0
2019-06-19T03:05:05.013Z,0
2019-06-19T03:06:05.761Z,0
2019-06-19T03:07:05.885Z,0
2019-06-19T03:08:06.034Z,0
2019-06-19T03:09:06.453Z,0
2019-06-19T03:10:06.913Z,0
2019-06-19T03:11:08.197Z,0
2019-06-19T03:12:08.974Z,0
2019-06-19T03:13:09.743Z,0
2019-06-19T03:14:10.148Z,0
2019-06-19T03:15:10.934Z,0
2019-06-19T03:16:11.340Z,0
2019-06-19T03:17:12.049Z,0
2019-06-19T03:18:12.534Z,0
2019-06-19T03:19:13.657Z,0
2019-06-19T03:20:13.953Z,0
2019-06-19T03:21:14.471Z,0
2019-06-19T03:22:14.880Z,0
2019-06-19T03:23:15.579Z,0
2019-06-19T03:24:17.399Z,0
2019-06-19T03:25:16.657Z,0
2019-06-19T03:26:17.711Z,0
2019-06-19T03:27:19.158Z,0
2019-06-19T03:28:18.638Z,0
2019-06-19T03:29:19.064Z,0
2019-06-19T03:30:19.797Z,0
2019-06-19T03:31:39.205Z,0
2019-06-19T03:32:20.225Z,5.63
2019-06-19T03:33:21.531Z,5.63
2019-06-19T03:34:22.323Z,5.63
2019-06-19T03:35:22.763Z,5.63
2019-06-19T03:36:22.889Z,5.63
2019-06-19T03:37:23.623Z,5.63
2019-06-19T03:38:24.049Z,5.63
2019-06-19T03:39:24.168Z,5.63
2019-06-19T03:40:24.292Z,5.63
2019-06-19T03:41:25.844Z,5.63
2019-06-19T03:42:26.537Z,5.63
2019-06-19T03:43:27.001Z,5.63
2019-06-19T03:44:27.711Z,5.63
2019-06-19T03:45:28.709Z,5.63
2019-06-19T03:46:29.710Z,5.63
2019-06-19T03:47:30.125Z,11.25
2019-06-19T03:48:30.268Z,11.25
2019-06-19T03:49:31.250Z,11.25
2019-06-19T03:50:31.711Z,11.25
2019-06-19T03:51:32.405Z,11.25
2019-06-19T03:52:32.843Z,11.25
2019-06-19T03:53:33.563Z,11.25
2019-06-19T03:54:33.987Z,11.25
2019-06-19T03:55:34.721Z,11.25
2019-06-19T03:56:35.417Z,11.25
2019-06-19T03:57:35.833Z,11.25
2019-06-19T03:58:36.260Z,11.25
2019-06-19T03:59:36.396Z,11.25
2019-06-19T04:00:37.098Z,16.88
2019-06-19T04:01:48.784Z,16.88
2019-06-19T04:02:37.973Z,16.88
2019-06-19T04:03:38.104Z,16.88
2019-06-19T04:04:38.826Z,16.88
2019-06-19T04:05:39.531Z,16.88
2019-06-19T04:06:40.564Z,16.88
2019-06-19T04:07:40.723Z,16.88
2019-06-19T04:08:41.151Z,16.88
2019-06-19T04:09:41.917Z,16.88
2019-06-19T04:10:42.337Z,16.88
2019-06-19T04:11:42.299Z,16.88
2019-06-19T04:12:43.003Z,16.88
2019-06-19T04:13:43.498Z,16.88
2019-06-19T04:14:43.645Z,16.88
2019-06-19T04:15:44.767Z,22.5
2019-06-19T04:16:45.493Z,22.5
2019-06-19T04:17:45.895Z,22.5
2019-06-19T04:18:47.243Z,22.5
2019-06-19T04:19:46.373Z,22.5
2019-06-19T04:20:47.103Z,22.5
2019-06-19T04:21:47.643Z,28.13
2019-06-19T04:22:48.405Z,28.13
2019-06-19T04:23:48.851Z,28.13
2019-06-19T04:24:49.555Z,28.13
2019-06-19T04:25:50.559Z,33.75
2019-06-19T04:26:51.068Z,33.75
2019-06-19T04:27:51.776Z,33.75
2019-06-19T04:28:52.214Z,39.38
2019-06-19T04:29:52.345Z,39.38
2019-06-19T04:30:52.499Z,39.38
2019-06-19T04:32:05.105Z,39.38
2019-06-19T04:32:53.691Z,39.38
2019-06-19T04:33:54.113Z,39.38
2019-06-19T04:34:54.548Z,45
2019-06-19T04:35:55.237Z,45
2019-06-19T04:36:55.675Z,45
2019-06-19T04:37:56.405Z,45
2019-06-19T04:38:56.831Z,45
2019-06-19T04:39:57.858Z,45
2019-06-19T04:40:58.292Z,45
2019-06-19T04:41:59.864Z,45
2019-06-19T04:43:00.877Z,39.38
2019-06-19T04:44:00.597Z,39.38
2019-06-19T04:45:01.332Z,39.38
2019-06-19T04:46:02.053Z,39.38
2019-06-19T04:47:02.185Z,39.38
2019-06-19T04:48:02.866Z,39.38
2019-06-19T04:49:03.269Z,39.38
2019-06-19T04:50:03.399Z,39.38
2019-06-19T04:51:03.521Z,39.38
2019-06-19T04:52:04.482Z,39.38
2019-06-19T04:53:04.923Z,39.38
2019-06-19T04:54:05.062Z,39.38
2019-06-19T04:55:05.507Z,33.75
2019-06-19T04:56:05.990Z,33.75
2019-06-19T04:57:07.667Z,33.75
2019-06-19T04:58:07.139Z,33.75
2019-06-19T04:59:07.566Z,39.38
2019-06-19T05:00:07.993Z,39.38
2019-06-19T05:01:09.024Z,39.38
2019-06-19T05:02:20.470Z,39.38
2019-06-19T05:03:09.110Z,39.38
2019-06-19T05:04:10.118Z,39.38
2019-06-19T05:05:11.103Z,39.38
2019-06-19T05:06:11.539Z,39.38
2019-06-19T05:07:12.922Z,39.38
2019-06-19T05:08:12.058Z,39.38
2019-06-19T05:09:12.765Z,39.38
2019-06-19T05:10:13.207Z,39.38
2019-06-19T05:11:14.250Z,39.38
2019-06-19T05:12:14.229Z,39.38
2019-06-19T05:13:14.663Z,39.38
2019-06-19T05:14:15.951Z,39.38
2019-06-19T05:15:15.938Z,45
2019-06-19T05:16:16.927Z,50.63
2019-06-19T05:17:16.935Z,56.25
2019-06-19T05:18:17.664Z,61.88
2019-06-19T05:19:18.424Z,67.5
2019-06-19T05:20:19.714Z,73.13
2019-06-19T05:21:19.708Z,78.75
2019-06-19T05:22:19.679Z,84.38
2019-06-19T05:23:21.274Z,90
2019-06-19T05:24:21.302Z,90
2019-06-19T05:25:21.727Z,90
2019-06-19T05:26:22.174Z,90
2019-06-19T05:27:22.309Z,95.63
2019-06-19T05:28:23.030Z,95.63
2019-06-19T05:29:23.503Z,95.63
2019-06-19T05:30:24.233Z,95.63
2019-06-19T05:31:25.230Z,95.63
2019-06-19T05:32:36.156Z,90
2019-06-19T05:33:25.772Z,90
2019-06-19T05:34:27.610Z,84.38
2019-06-19T05:35:26.748Z,90
2019-06-19T05:36:26.877Z,90
2019-06-19T05:37:27.607Z,90
2019-06-19T05:38:28.310Z,90
2019-06-19T05:39:29.365Z,90
2019-06-19T05:40:30.391Z,90
2019-06-19T05:41:31.074Z,90
2019-06-19T05:42:31.612Z,90
2019-06-19T05:43:32.039Z,95.63
2019-06-19T05:44:33.034Z,95.63
2019-06-19T05:45:33.468Z,95.63
2019-06-19T05:46:33.889Z,90
2019-06-19T05:47:34.672Z,90
2019-06-19T05:48:35.083Z,90
2019-06-19T05:49:35.238Z,90
2019-06-19T05:50:35.674Z,95.63
2019-06-19T05:51:36.110Z,95.63
2019-06-19T05:52:36.652Z,101.25
2019-06-19T05:53:37.399Z,106.88
2019-06-19T05:54:38.122Z,112.5
2019-06-19T05:55:38.569Z,118.13
2019-06-19T05:56:39.278Z,118.13
2019-06-19T05:57:39.977Z,129.38
2019-06-19T05:58:44.467Z,135
2019-06-19T05:59:41.236Z,135
2019-06-19T06:00:41.966Z,140.63
2019-06-19T06:01:42.423Z,140.63
2019-06-19T06:02:57.236Z,151.88
2019-06-19T06:03:47.181Z,157.5
2019-06-19T06:04:44.005Z,163.13
2019-06-19T06:05:45.015Z,163.13
2019-06-19T06:06:49.501Z,168.75
2019-06-19T06:07:46.036Z,168.75
2019-06-19T06:08:47.009Z,163.13
2019-06-19T06:09:49.772Z,151.88
2019-06-19T06:10:48.185Z,151.88
2019-06-19T06:11:48.315Z,151.88
2019-06-19T06:12:49.617Z,151.88
2019-06-19T06:13:50.221Z,146.25
2019-06-19T06:14:50.679Z,146.25
2019-06-19T06:15:51.401Z,146.25
2019-06-19T06:16:52.116Z,146.25
2019-06-19T06:17:52.546Z,151.88
2019-06-19T06:18:53.262Z,157.5
2019-06-19T06:19:53.774Z,151.88
2019-06-19T06:20:54.499Z,151.88
2019-06-19T06:21:55.201Z,151.88
2019-06-19T06:22:55.485Z,157.5
2019-06-19T06:23:55.941Z,157.5
2019-06-19T06:24:57.895Z,157.5
2019-06-19T06:25:57.628Z,157.5
2019-06-19T06:26:58.330Z,157.5
2019-06-19T06:27:59.290Z,157.5
2019-06-19T06:29:03.642Z,151.88
2019-06-19T06:30:00.339Z,151.88
2019-06-19T06:31:01.061Z,146.25
2019-06-19T06:32:01.792Z,146.25
2019-06-19T06:33:21.454Z,146.25
2019-06-19T06:34:02.991Z,151.88
2019-06-19T06:35:03.990Z,151.88
2019-06-19T06:36:04.398Z,151.88
2019-06-19T06:37:04.632Z,157.5
2019-06-19T06:38:05.658Z,157.5
2019-06-19T06:39:06.428Z,157.5
2019-06-19T06:40:07.159Z,157.5
2019-06-19T06:41:09.509Z,157.5
2019-06-19T06:42:12.313Z,163.13
2019-06-19T06:43:12.525Z,163.13
2019-06-19T06:44:14.199Z,163.13
2019-06-19T06:45:10.192Z,163.13
2019-06-19T06:46:11.180Z,168.75
2019-06-19T06:47:11.906Z,180
2019-06-19T06:48:12.807Z,196.88
2019-06-19T06:49:14.100Z,202.5
2019-06-19T06:50:14.537Z,213.75
2019-06-19T06:51:15.584Z,208.13
2019-06-19T06:52:17.228Z,241.88
2019-06-19T06:53:16.524Z,241.88
2019-06-19T06:54:17.585Z,230.63
2019-06-19T06:55:18.334Z,230.63
2019-06-19T06:56:18.524Z,219.38
2019-06-19T06:57:21.382Z,230.63
2019-06-19T06:58:18.918Z,258.75
2019-06-19T06:59:20.202Z,241.88
2019-06-19T07:00:20.213Z,236.25
2019-06-19T07:01:20.642Z,241.88
2019-06-19T07:02:23.447Z,247.5
2019-06-19T07:03:35.946Z,258.75
2019-06-19T07:04:24.348Z,264.38
2019-06-19T07:05:22.805Z,270
2019-06-19T07:06:24.116Z,253.13
2019-06-19T07:07:24.423Z,253.13
2019-06-19T07:08:24.187Z,253.13
2019-06-19T07:09:25.020Z,253.13
2019-06-19T07:10:24.752Z,253.13
2019-06-19T07:11:25.192Z,258.75
2019-06-19T07:12:25.883Z,253.13
2019-06-19T07:13:26.435Z,258.75
2019-06-19T07:14:26.609Z,292.5
2019-06-19T07:15:27.031Z,270
2019-06-19T07:16:29.249Z,236.25
2019-06-19T07:17:28.947Z,230.63
2019-06-19T07:18:28.327Z,247.5
2019-06-19T07:19:28.740Z,247.5
2019-06-19T07:20:29.168Z,281.25
2019-06-19T07:21:30.503Z,247.5
2019-06-19T07:22:33.767Z,236.25
2019-06-19T07:23:31.443Z,253.13
2019-06-19T07:24:31.930Z,264.38
2019-06-19T07:25:32.708Z,281.25
2019-06-19T07:26:33.452Z,286.88
2019-06-19T07:27:36.329Z,320.63
2019-06-19T07:28:34.642Z,315
2019-06-19T07:29:35.952Z,275.63
2019-06-19T07:30:36.664Z,286.88
2019-06-19T07:31:37.689Z,500.63
2019-06-19T07:32:38.702Z,343.13
2019-06-19T07:33:52.744Z,281.25
2019-06-19T07:34:39.781Z,298.13
2019-06-19T07:35:40.215Z,427.5
2019-06-19T07:36:40.645Z,320.63
2019-06-19T07:37:41.447Z,320.63
2019-06-19T07:38:41.862Z,326.25
2019-06-19T07:39:48.562Z,455.63
2019-06-19T07:40:42.708Z,450
2019-06-19T07:41:43.417Z,286.88
2019-06-19T07:42:43.852Z,270
2019-06-19T07:43:45.185Z,253.13
2019-06-19T07:44:44.903Z,236.25
2019-06-19T07:45:45.145Z,241.88
2019-06-19T07:46:45.873Z,405
2019-06-19T07:47:47.300Z,343.13
2019-06-19T07:48:47.338Z,286.88
2019-06-19T07:49:47.661Z,506.25
2019-06-19T07:50:49.317Z,478.13
2019-06-19T07:51:49.299Z,686.25
2019-06-19T07:52:49.465Z,444.38
2019-06-19T07:53:49.061Z,1603.13
2019-06-19T07:54:50.090Z,1417.5
2019-06-19T07:55:50.522Z,1473.75
2019-06-19T07:56:51.254Z,1479.38
2019-06-19T07:57:52.006Z,1546.88
2019-06-19T07:58:52.745Z,1411.88
2019-06-19T07:59:55.231Z,1541.25
2019-06-19T08:00:54.260Z,1535.63
2019-06-19T08:02:09.410Z,1389.38
2019-06-19T08:02:57.834Z,1305
2019-06-19T08:04:10.381Z,1282.5
2019-06-19T08:04:55.109Z,1276.88
2019-06-19T08:05:56.598Z,1220.63
2019-06-19T08:06:56.327Z,1175.63
2019-06-19T08:07:58.224Z,1141.88
2019-06-19T08:08:58.281Z,1158.75
2019-06-19T08:09:57.721Z,1186.88
2019-06-19T08:10:58.491Z,1248.75
2019-06-19T08:11:59.540Z,1355.63
2019-06-19T08:12:59.107Z,1456.88
2019-06-19T08:14:00.577Z,1518.75
2019-06-19T08:15:00.041Z,1541.25
2019-06-19T08:16:00.529Z,1597.5
2019-06-19T08:17:01.652Z,1631.25
2019-06-19T08:18:03.657Z,1530
2019-06-19T08:19:05.015Z,1378.13
2019-06-19T08:20:05.206Z,1355.63
2019-06-19T08:21:06.970Z,1518.75
2019-06-19T08:22:09.084Z,1541.25
2019-06-19T08:23:06.296Z,1440
2019-06-19T08:24:06.013Z,1462.5
2019-06-19T08:25:08.089Z,1597.5
2019-06-19T08:26:07.587Z,1653.75
2019-06-19T08:27:12.669Z,1659.38
2019-06-19T08:28:08.503Z,1670.63
2019-06-19T08:29:09.241Z,1743.75
2019-06-19T08:30:10.653Z,1800
2019-06-19T08:31:11.058Z,1755
2019-06-19T08:32:11.322Z,1749.38
2019-06-19T08:33:12.412Z,1721.25
2019-06-19T08:34:31.425Z,1710
2019-06-19T08:35:15.643Z,1665
2019-06-19T08:36:14.454Z,1608.75
2019-06-19T08:37:16.922Z,1676.25
2019-06-19T08:38:16.609Z,1771.88
2019-06-19T08:39:16.636Z,1884.38
2019-06-19T08:40:20.599Z,1771.88
2019-06-19T08:41:20.756Z,1445.63
2019-06-19T08:42:21.429Z,1288.13
2019-06-19T08:43:20.473Z,1456.88
2019-06-19T08:44:19.679Z,1777.5
2019-06-19T08:45:23.849Z,1929.38
2019-06-19T08:46:21.651Z,1873.13
2019-06-19T08:47:22.023Z,1816.88
2019-06-19T08:48:21.895Z,1800
2019-06-19T08:49:22.675Z,1788.75
2019-06-19T08:50:31.698Z,1749.38
2019-06-19T08:51:24.449Z,1788.75
2019-06-19T08:52:25.655Z,1839.38
2019-06-19T08:53:29.012Z,1760.63
2019-06-19T08:54:28.441Z,1693.13
2019-06-19T08:55:31.354Z,1850.63
2019-06-19T08:56:29.126Z,1845
2019-06-19T08:57:29.979Z,1614.38
2019-06-19T08:58:34.784Z,1518.75
2019-06-19T08:59:30.740Z,1518.75
2019-06-19T09:00:33.366Z,1462.5
2019-06-19T09:01:32.582Z,1355.63
2019-06-19T09:02:35.001Z,1321.88
2019-06-19T09:03:35.512Z,1344.38
2019-06-19T09:04:49.788Z,1282.5
2019-06-19T09:05:34.363Z,1293.75
2019-06-19T09:06:33.131Z,1254.38
2019-06-19T09:07:33.856Z,1192.5
2019-06-19T09:08:34.599Z,1141.88
2019-06-19T09:09:36.311Z,1130.63
2019-06-19T09:10:37.107Z,1141.88
2019-06-19T09:11:36.566Z,1119.38
2019-06-19T09:12:38.407Z,1141.88
2019-06-19T09:13:39.010Z,1170
2019-06-19T09:14:45.325Z,1209.38
2019-06-19T09:15:43.080Z,1215
2019-06-19T09:16:43.969Z,1147.5
2019-06-19T09:17:40.101Z,1113.75
2019-06-19T09:18:40.582Z,1108.13
2019-06-19T09:19:41.311Z,1091.25
2019-06-19T09:20:46.158Z,1068.75
2019-06-19T09:21:45.841Z,1175.63
2019-06-19T09:22:44.237Z,1260
2019-06-19T09:23:44.973Z,1130.63
2019-06-19T09:24:45.231Z,1040.63
2019-06-19T09:25:47.209Z,1018.13
2019-06-19T09:26:49.357Z,1080
2019-06-19T09:27:47.109Z,1192.5
2019-06-19T09:28:48.446Z,1327.5
2019-06-19T09:29:50.218Z,1333.13
2019-06-19T09:30:48.784Z,1254.38
2019-06-19T09:31:49.820Z,1237.5
2019-06-19T09:32:49.562Z,1276.88
2019-06-19T09:33:52.060Z,1383.75
2019-06-19T09:35:05.911Z,1468.13
2019-06-19T09:35:51.811Z,1558.13
2019-06-19T09:36:52.086Z,1603.13
2019-06-19T09:37:52.913Z,1389.38
2019-06-19T09:38:51.509Z,1451.25
2019-06-19T09:39:54.783Z,433.13
2019-06-19T09:40:55.233Z,511.88
2019-06-19T09:41:55.313Z,1119.38
2019-06-19T09:42:54.636Z,1372.5
2019-06-19T09:43:54.661Z,990
2019-06-19T09:44:55.930Z,838.13
2019-06-19T09:45:55.994Z,489.38
2019-06-19T09:46:58.617Z,1558.13
2019-06-19T09:47:57.090Z,1254.38
2019-06-19T09:48:58.769Z,1406.25
2019-06-19T09:49:57.032Z,1479.38
2019-06-19T09:50:59.952Z,1608.75
2019-06-19T09:52:02.500Z,1248.75
2019-06-19T09:53:01.330Z,1006.88
2019-06-19T09:53:59.767Z,1546.88
2019-06-19T09:55:03.118Z,1569.38
2019-06-19T09:56:04.035Z,1603.13
2019-06-19T09:57:03.809Z,1665
2019-06-19T09:58:03.649Z,1591.88
2019-06-19T09:59:04.960Z,1642.5
2019-06-19T10:00:05.090Z,1710
2019-06-19T10:01:08.473Z,1648.13
2019-06-19T10:02:11.268Z,1755
2019-06-19T10:03:07.566Z,1715.63
2019-06-19T10:04:07.964Z,1715.63
2019-06-19T10:05:26.116Z,1687.5
2019-06-19T10:06:08.866Z,1687.5
2019-06-19T10:07:11.988Z,1743.75
2019-06-19T10:08:10.385Z,1732.5
2019-06-19T10:09:09.982Z,1760.63
2019-06-19T10:10:13.227Z,1800
2019-06-19T10:11:11.118Z,781.88
2019-06-19T10:12:13.087Z,866.25
2019-06-19T10:13:14.218Z,1501.88
2019-06-19T10:14:13.885Z,1288.13
2019-06-19T10:15:14.139Z,1080
2019-06-19T10:16:19.384Z,770.63
2019-06-19T10:17:16.287Z,748.13
2019-06-19T10:18:17.831Z,618.75
2019-06-19T10:19:16.611Z,1226.25
2019-06-19T10:20:17.774Z,1085.63
2019-06-19T10:21:19.404Z,1636.88
2019-06-19T10:22:20.645Z,1648.13
2019-06-19T10:23:23.942Z,1693.13
2019-06-19T10:24:21.060Z,1631.25
2019-06-19T10:25:21.139Z,1676.25
2019-06-19T10:26:22.539Z,1648.13
2019-06-19T10:27:26.174Z,1575
2019-06-19T10:28:23.931Z,1434.38
2019-06-19T10:29:25.604Z,545.63
2019-06-19T10:30:24.346Z,826.88
2019-06-19T10:31:24.766Z,1096.88
2019-06-19T10:32:44.097Z,731.25
2019-06-19T10:33:29.522Z,523.13
2019-06-19T10:34:27.096Z,534.38
2019-06-19T10:35:40.145Z,781.88
2019-06-19T10:36:27.299Z,1417.5
2019-06-19T10:37:30.290Z,973.13
2019-06-19T10:38:32.311Z,1203.75
2019-06-19T10:39:29.824Z,798.75
2019-06-19T10:40:30.233Z,900
2019-06-19T10:41:29.432Z,1530
2019-06-19T10:42:33.693Z,1715.63
2019-06-19T10:43:32.000Z,1636.88
2019-06-19T10:44:31.396Z,787.5
2019-06-19T10:45:31.686Z,675
2019-06-19T10:46:46.730Z,1040.63
2019-06-19T10:47:34.374Z,1524.38
2019-06-19T10:48:34.472Z,1535.63
2019-06-19T10:49:34.965Z,1535.63
2019-06-19T10:50:36.017Z,444.38
2019-06-19T10:51:38.124Z,1501.88
2019-06-19T10:52:39.261Z,832.5
2019-06-19T10:53:41.323Z,961.88
2019-06-19T10:54:42.229Z,1434.38
2019-06-19T10:55:40.634Z,1423.13
2019-06-19T10:56:41.680Z,1479.38
2019-06-19T10:57:45.869Z,1423.13
2019-06-19T10:58:42.667Z,1299.38
2019-06-19T10:59:44.115Z,1141.88
2019-06-19T11:00:45.597Z,1220.63
2019-06-19T11:01:45.091Z,1243.13
2019-06-19T11:02:47.453Z,1372.5
2019-06-19T11:03:47.126Z,1389.38
2019-06-19T11:04:45.574Z,1372.5
2019-06-19T11:05:57.405Z,1305
2019-06-19T11:06:47.471Z,1350
2019-06-19T11:07:47.908Z,1395
2019-06-19T11:08:51.778Z,1378.13
2019-06-19T11:09:49.129Z,1321.88
2019-06-19T11:10:49.721Z,1299.38
2019-06-19T11:11:50.558Z,1237.5
2019-06-19T11:12:53.825Z,1248.75
2019-06-19T11:13:52.789Z,1231.88
2019-06-19T11:14:54.484Z,1198.13
2019-06-19T11:15:56.567Z,1248.75
2019-06-19T11:16:57.554Z,1153.13
2019-06-19T11:17:57.572Z,1186.88
2019-06-19T11:18:57.209Z,1248.75
2019-06-19T11:19:56.341Z,1260
2019-06-19T11:20:59.010Z,1231.88
2019-06-19T11:21:57.861Z,1203.75
2019-06-19T11:23:01.080Z,1175.63
2019-06-19T11:23:58.800Z,1130.63
2019-06-19T11:25:00.121Z,1170
2019-06-19T11:26:03.179Z,1130.63
2019-06-19T11:27:01.005Z,1181.25
2019-06-19T11:28:05.667Z,1175.63
2019-06-19T11:29:06.385Z,1102.5
2019-06-19T11:30:05.779Z,1125
2019-06-19T11:31:04.520Z,1108.13
2019-06-19T11:32:05.032Z,1085.63
2019-06-19T11:33:08.996Z,1074.38
2019-06-19T11:34:09.227Z,1108.13
2019-06-19T11:35:06.915Z,1063.13
2019-06-19T11:36:13.856Z,1063.13
2019-06-19T11:37:10.008Z,1023.75
2019-06-19T11:38:11.718Z,1057.5
2019-06-19T11:39:13.654Z,1057.5
2019-06-19T11:40:10.491Z,1040.63
2019-06-19T11:41:12.799Z,995.63
2019-06-19T11:42:11.845Z,1006.88
2019-06-19T11:43:12.670Z,973.13
2019-06-19T11:44:14.307Z,905.63
2019-06-19T11:45:13.803Z,961.88
2019-06-19T11:46:16.816Z,1006.88
2019-06-19T11:47:14.993Z,995.63
2019-06-19T11:48:18.286Z,995.63
2019-06-19T11:49:17.638Z,973.13
2019-06-19T11:50:16.407Z,950.63
2019-06-19T11:51:21.292Z,967.5
2019-06-19T11:52:18.576Z,967.5
2019-06-19T11:53:20.781Z,956.25
2019-06-19T11:54:19.131Z,956.25
2019-06-19T11:55:23.188Z,945
2019-06-19T11:56:25.565Z,933.75
2019-06-19T11:57:23.247Z,905.63
2019-06-19T11:58:21.972Z,922.5
2019-06-19T11:59:22.742Z,939.38
2019-06-19T12:00:26.431Z,900
2019-06-19T12:01:28.720Z,883.13
2019-06-19T12:02:25.010Z,866.25
2019-06-19T12:03:42.141Z,866.25
2019-06-19T12:04:26.270Z,866.25
2019-06-19T12:05:28.208Z,860.63
2019-06-19T12:06:31.849Z,826.88
2019-06-19T12:07:32.680Z,810
2019-06-19T12:08:37.184Z,821.25
2019-06-19T12:09:34.280Z,815.63
2019-06-19T12:10:35.013Z,781.88
2019-06-19T12:11:38.043Z,770.63
2019-06-19T12:12:36.961Z,753.75
2019-06-19T12:13:37.397Z,765
2019-06-19T12:14:38.154Z,765
2019-06-19T12:15:39.493Z,748.13
2019-06-19T12:16:39.344Z,759.38
2019-06-19T12:17:41.946Z,765
2019-06-19T12:18:43.922Z,753.75
2019-06-19T12:19:40.575Z,731.25
2019-06-19T12:20:41.299Z,725.63
2019-06-19T12:21:44.194Z,731.25
2019-06-19T12:22:46.658Z,725.63
2019-06-19T12:23:44.269Z,714.38
2019-06-19T12:24:47.329Z,708.75
2019-06-19T12:25:45.049Z,714.38
2019-06-19T12:26:46.468Z,703.13
2019-06-19T12:27:50.030Z,697.5
2019-06-19T12:28:47.947Z,691.88
2019-06-19T12:29:47.688Z,686.25
2019-06-19T12:30:48.163Z,680.63
2019-06-19T12:31:49.236Z,686.25
2019-06-19T12:32:54.299Z,691.88
2019-06-19T12:33:53.803Z,703.13
2019-06-19T12:34:50.322Z,714.38
2019-06-19T12:35:51.514Z,776.25
2019-06-19T12:36:52.312Z,990
2019-06-19T12:37:54.758Z,1040.63
2019-06-19T12:38:55.784Z,945
2019-06-19T12:39:55.322Z,888.75
2019-06-19T12:40:55.432Z,832.5
2019-06-19T12:41:54.847Z,793.13
2019-06-19T12:42:58.377Z,781.88
2019-06-19T12:43:56.705Z,793.13
2019-06-19T12:45:00.248Z,793.13
2019-06-19T12:45:58.565Z,776.25
2019-06-19T12:46:57.561Z,742.5
2019-06-19T12:47:58.832Z,725.63
2019-06-19T12:49:05.686Z,720
2019-06-19T12:50:02.785Z,708.75
2019-06-19T12:51:04.584Z,686.25
2019-06-19T12:52:04.124Z,669.38
2019-06-19T12:53:04.265Z,658.13
2019-06-19T12:54:03.404Z,652.5
2019-06-19T12:55:17.572Z,646.88
2019-06-19T12:56:00.860Z,613.13
2019-06-19T12:57:01.432Z,568.13
2019-06-19T12:58:05.407Z,568.13
2019-06-19T12:59:03.178Z,562.5
2019-06-19T13:00:06.174Z,540
2019-06-19T13:01:05.296Z,517.5
2019-06-19T13:02:06.331Z,517.5
2019-06-19T13:03:11.086Z,523.13
2019-06-19T13:04:11.095Z,511.88
2019-06-19T13:05:12.463Z,511.88
2019-06-19T13:06:09.592Z,511.88
2019-06-19T13:07:09.899Z,523.13
2019-06-19T13:08:13.676Z,528.75
2019-06-19T13:09:11.183Z,511.88
2019-06-19T13:10:16.077Z,495
2019-06-19T13:11:12.201Z,495
2019-06-19T13:12:13.243Z,506.25
2019-06-19T13:13:16.614Z,495
2019-06-19T13:14:17.872Z,478.13
2019-06-19T13:15:19.814Z,466.88
2019-06-19T13:16:21.413Z,483.75
2019-06-19T13:17:17.435Z,489.38